Time;durP1;ratioP1;P1;durP2;ratioP2;P2;SDS_P1;SDS_P2;PMS_P1;PMS_P2;Temp;Humidity;BMP_temperature;BMP_pressure;BME280_temperature;BME280_humidity;BME280_pressure;Samples;Min_cycle;Max_cycle;Signal;HPM_P1;HPM_P2
2023/05/26 00:00:23;;;;;;;3.88;1.65;;;;;;;;;;4910834;29;20068;-66
2023/05/26 00:03:10;;;;;;;3.58;1.75;;;;;;;;;;4907893;29;20477;-67
2023/05/26 00:05:40;;;;;;;2.45;1.40;;;;;;;;;;4906116;29;20060;-65
2023/05/26 00:08:07;;;;;;;2.53;1.85;;;;;;;;;;4908373;29;20053;-67
2023/05/26 00:10:33;;;;;;;4.03;1.90;;;;;;;;;;4909973;29;20059;-66
2023/05/26 00:13:01;;;;;;;2.40;1.65;;;;;;;;;;4906998;29;20395;-64
2023/05/26 00:15:27;;;;;;;2.55;1.77;;;;;;;;;;4914322;29;20063;-67
2023/05/26 00:17:57;;;;;;;2.85;1.80;;;;;;;;;;4910521;29;20506;-66
2023/05/26 00:20:26;;;;;;;3.55;2.08;;;;;;;;;;4913436;29;20528;-67
2023/05/26 00:22:52;;;;;;;2.80;1.90;;;;;;;;;;4910456;29;20095;-66
2023/05/26 00:25:18;;;;;;;2.92;1.88;;;;;;;;;;4911266;29;20067;-70
2023/05/26 00:27:44;;;;;;;4.80;2.00;;;;;;;;;;4913399;29;20489;-67
2023/05/26 00:30:11;;;;;;;3.40;1.90;;;;;;;;;;4906840;29;20052;-67
2023/05/26 00:32:37;;;;;;;3.58;2.00;;;;;;;;;;4908273;29;20190;-65
2023/05/26 00:35:03;;;;;;;5.57;2.30;;;;;;;;;;4916069;29;20149;-65
2023/05/26 00:37:29;;;;;;;5.68;2.30;;;;;;;;;;4911256;29;20050;-67
2023/05/26 00:39:57;;;;;;;3.75;2.20;;;;;;;;;;4911774;29;20048;-67
2023/05/26 00:42:23;;;;;;;4.53;2.20;;;;;;;;;;4911417;29;20067;-67
2023/05/26 00:44:51;;;;;;;3.55;2.33;;;;;;;;;;4912617;29;20126;-66
2023/05/26 00:47:17;;;;;;;3.67;2.28;;;;;;;;;;4907956;29;20509;-67
2023/05/26 00:49:44;;;;;;;2.85;1.85;;;;;;;;;;4907529;29;20508;-67
2023/05/26 00:52:10;;;;;;;3.30;2.17;;;;;;;;;;4909998;29;20111;-67
2023/05/26 00:54:38;;;;;;;3.65;2.45;;;;;;;;;;4913930;29;20059;-66
2023/05/26 00:57:05;;;;;;;5.05;2.58;;;;;;;;;;4913793;29;20107;-68
2023/05/26 00:59:31;;;;;;;3.83;2.67;;;;;;;;;;4915057;29;20115;-65
2023/05/26 01:01:59;;;;;;;3.75;2.30;;;;;;;;;;4912118;29;20040;-64
2023/05/26 01:04:27;;;;;;;3.42;2.40;;;;;;;;;;4907704;29;20064;-65
2023/05/26 01:06:52;;;;;;;3.28;2.70;;;;;;;;;;4908666;29;20052;-66
2023/05/26 01:09:20;;;;;;;5.78;3.05;;;;;;;;;;4908032;29;20052;-64
2023/05/26 01:11:48;;;;;;;4.90;3.47;;;;;;;;;;4909413;29;20599;-65
2023/05/26 01:14:32;;;;;;;4.95;3.67;;;;;;;;;;4908240;29;20692;-66
2023/05/26 01:17:11;;;;;;;6.30;3.53;;;;;;;;;;4908653;29;20072;-65
2023/05/26 01:19:56;;;;;;;6.05;4.05;;;;;;;;;;4911650;29;20501;-66
2023/05/26 01:22:52;;;;;;;5.35;4.25;;;;;;;;;;4910174;29;20150;-66
2023/05/26 01:25:56;;;;;;;8.32;4.78;;;;;;;;;;4910223;29;20048;-65
2023/05/26 01:28:29;;;;;;;9.38;4.82;;;;;;;;;;4905582;29;20052;-65
2023/05/26 01:30:55;;;;;;;9.30;5.15;;;;;;;;;;4911319;29;20056;-65
2023/05/26 01:33:21;;;;;;;10.93;5.80;;;;;;;;;;4910787;29;20071;-67
2023/05/26 01:35:47;;;;;;;7.93;5.30;;;;;;;;;;4908538;29;20413;-65
2023/05/26 01:38:13;;;;;;;6.00;4.78;;;;;;;;;;4909152;29;20053;-66
2023/05/26 01:40:42;;;;;;;9.98;4.95;;;;;;;;;;4912282;29;20059;-66
2023/05/26 01:43:29;;;;;;;8.38;4.95;;;;;;;;;;4907985;29;20052;-63
2023/05/26 01:46:35;;;;;;;7.57;4.78;;;;;;;;;;4919243;29;20056;-64
2023/05/26 01:49:05;;;;;;;5.88;4.72;;;;;;;;;;4910037;29;20489;-65
2023/05/26 01:51:33;;;;;;;10.05;5.35;;;;;;;;;;4908069;29;20145;-63
2023/05/26 01:54:01;;;;;;;7.10;4.90;;;;;;;;;;4908732;29;20059;-64
2023/05/26 01:56:31;;;;;;;9.27;5.35;;;;;;;;;;4909835;29;20427;-64
2023/05/26 01:58:58;;;;;;;10.73;5.60;;;;;;;;;;4908489;29;20051;-65
2023/05/26 02:01:26;;;;;;;9.32;5.60;;;;;;;;;;4907207;29;20047;-63
2023/05/26 02:03:52;;;;;;;7.78;4.75;;;;;;;;;;4908611;29;20037;-66
2023/05/26 02:06:18;;;;;;;8.27;5.22;;;;;;;;;;4912780;29;20522;-67
2023/05/26 02:08:44;;;;;;;9.10;4.90;;;;;;;;;;4909013;29;20158;-65
2023/05/26 02:11:10;;;;;;;6.95;4.22;;;;;;;;;;4911622;29;20110;-66
2023/05/26 02:13:36;;;;;;;5.65;4.15;;;;;;;;;;4905877;29;20059;-65
2023/05/26 02:16:02;;;;;;;5.28;3.75;;;;;;;;;;4907195;29;20560;-64
2023/05/26 02:18:28;;;;;;;6.85;3.20;;;;;;;;;;4905991;29;20052;-65
2023/05/26 02:20:54;;;;;;;5.28;3.30;;;;;;;;;;4906754;29;20044;-65
2023/05/26 02:23:20;;;;;;;5.43;3.13;;;;;;;;;;4909078;29;20060;-64
2023/05/26 02:25:46;;;;;;;8.27;3.10;;;;;;;;;;4908867;29;20071;-64
2023/05/26 02:28:11;;;;;;;4.05;3.22;;;;;;;;;;4907949;29;20501;-65
2023/05/26 02:30:37;;;;;;;4.80;3.20;;;;;;;;;;4909848;29;20509;-65
2023/05/26 02:33:06;;;;;;;5.00;2.83;;;;;;;;;;4906538;29;20055;-65
2023/05/26 02:35:32;;;;;;;4.70;3.10;;;;;;;;;;4907671;29;20060;-65
2023/05/26 02:37:58;;;;;;;5.82;2.80;;;;;;;;;;4906626;29;20064;-65
2023/05/26 02:40:23;;;;;;;5.45;3.20;;;;;;;;;;4909494;29;20409;-65
2023/05/26 02:42:49;;;;;;;6.13;2.72;;;;;;;;;;4911176;29;20103;-65
2023/05/26 02:45:17;;;;;;;7.20;2.70;;;;;;;;;;4906169;29;20056;-63
2023/05/26 02:47:43;;;;;;;4.53;2.65;;;;;;;;;;4905946;29;20048;-66
2023/05/26 02:50:09;;;;;;;4.68;2.58;;;;;;;;;;4904779;29;20131;-65
2023/05/26 02:52:35;;;;;;;4.65;2.90;;;;;;;;;;4911575;29;20059;-67
2023/05/26 02:55:01;;;;;;;4.75;3.25;;;;;;;;;;4909662;29;20453;-66
2023/05/26 02:57:26;;;;;;;4.07;2.53;;;;;;;;;;4909055;29;20059;-66
2023/05/26 02:59:54;;;;;;;4.97;2.55;;;;;;;;;;4908787;29;20497;-65
2023/05/26 03:02:19;;;;;;;7.60;2.85;;;;;;;;;;4900518;29;20061;-64
2023/05/26 03:04:45;;;;;;;4.70;2.78;;;;;;;;;;4909488;29;20119;-64
2023/05/26 03:07:11;;;;;;;4.20;2.95;;;;;;;;;;4911999;29;20524;-66
2023/05/26 03:09:38;;;;;;;4.90;3.00;;;;;;;;;;4912059;29;20063;-67
2023/05/26 03:12:05;;;;;;;5.55;2.70;;;;;;;;;;4915207;29;20135;-66
2023/05/26 03:14:31;;;;;;;4.50;2.80;;;;;;;;;;4911103;29;20080;-64
2023/05/26 03:16:57;;;;;;;4.00;2.63;;;;;;;;;;4908375;29;20500;-68
2023/05/26 03:19:23;;;;;;;5.38;2.50;;;;;;;;;;4906591;29;20067;-68
2023/05/26 03:21:49;;;;;;;5.47;2.67;;;;;;;;;;4909535;29;20085;-66
2023/05/26 03:24:15;;;;;;;3.08;2.13;;;;;;;;;;4908556;29;20119;-66
2023/05/26 03:26:40;;;;;;;2.88;2.40;;;;;;;;;;4918585;29;20417;-66
2023/05/26 03:29:07;;;;;;;2.95;2.25;;;;;;;;;;4908129;29;20520;-66
2023/05/26 03:31:33;;;;;;;3.38;2.40;;;;;;;;;;4909585;29;20056;-66
2023/05/26 03:33:59;;;;;;;3.10;2.20;;;;;;;;;;4907181;29;20048;-67
2023/05/26 03:36:26;;;;;;;5.53;2.30;;;;;;;;;;4909992;29;20111;-65
2023/05/26 03:38:54;;;;;;;3.65;2.67;;;;;;;;;;4914304;29;20044;-66
2023/05/26 03:41:20;;;;;;;3.08;2.38;;;;;;;;;;4911815;29;20515;-66
2023/05/26 03:43:46;;;;;;;4.32;2.63;;;;;;;;;;4909968;29;20127;-67
2023/05/26 03:46:11;;;;;;;4.90;2.45;;;;;;;;;;4910100;29;20492;-65
2023/05/26 03:48:37;;;;;;;3.28;2.30;;;;;;;;;;4910220;29;20060;-65
2023/05/26 03:51:03;;;;;;;3.13;2.65;;;;;;;;;;4909542;29;20416;-65
2023/05/26 03:53:30;;;;;;;4.05;2.40;;;;;;;;;;4909735;29;20056;-67
2023/05/26 03:55:56;;;;;;;5.30;2.60;;;;;;;;;;4913169;29;20052;-66
2023/05/26 03:58:22;;;;;;;3.92;2.75;;;;;;;;;;4911081;29;20504;-68
2023/05/26 04:00:48;;;;;;;4.75;2.60;;;;;;;;;;4912009;29;20051;-66
2023/05/26 04:03:14;;;;;;;4.18;2.78;;;;;;;;;;4908685;29;20107;-67
2023/05/26 04:05:40;;;;;;;4.85;2.88;;;;;;;;;;4915677;29;20654;-65
2023/05/26 04:08:06;;;;;;;4.05;2.20;;;;;;;;;;4909000;29;20036;-66
2023/05/26 04:10:32;;;;;;;3.83;2.30;;;;;;;;;;4910960;29;20056;-64
2023/05/26 04:12:58;;;;;;;5.38;2.38;;;;;;;;;;4909255;29;20477;-65
2023/05/26 04:15:24;;;;;;;3.90;2.45;;;;;;;;;;4915859;29;20155;-68
2023/05/26 04:17:50;;;;;;;3.60;2.42;;;;;;;;;;4916166;29;20517;-64
2023/05/26 04:20:16;;;;;;;5.90;2.50;;;;;;;;;;4914010;29;20055;-64
2023/05/26 04:22:42;;;;;;;3.30;2.30;;;;;;;;;;4912350;29;20107;-66
2023/05/26 04:25:08;;;;;;;3.65;2.65;;;;;;;;;;4913042;29;20047;-65
2023/05/26 04:27:37;;;;;;;4.57;2.78;;;;;;;;;;4914701;29;20115;-66
2023/05/26 04:30:04;;;;;;;4.38;2.67;;;;;;;;;;4909194;29;20715;-66
2023/05/26 04:32:33;;;;;;;5.53;2.60;;;;;;;;;;4904503;29;20501;-65
2023/05/26 04:35:00;;;;;;;4.63;2.65;;;;;;;;;;4912779;29;20046;-67
2023/05/26 04:37:26;;;;;;;3.95;2.90;;;;;;;;;;4908435;29;20044;-66
2023/05/26 04:39:52;;;;;;;6.10;3.00;;;;;;;;;;4911642;29;20048;-66
2023/05/26 04:42:21;;;;;;;4.90;2.70;;;;;;;;;;4903447;29;20499;-66
2023/05/26 04:44:47;;;;;;;3.83;2.63;;;;;;;;;;4911419;29;20516;-65
2023/05/26 04:47:13;;;;;;;4.75;2.85;;;;;;;;;;4907992;29;20055;-66
2023/05/26 04:49:40;;;;;;;6.80;3.17;;;;;;;;;;4910437;29;20063;-65
2023/05/26 04:52:06;;;;;;;6.80;3.72;;;;;;;;;;4911467;29;20111;-64
2023/05/26 04:54:34;;;;;;;6.20;3.08;;;;;;;;;;4912263;29;20059;-64
2023/05/26 04:57:01;;;;;;;5.85;3.05;;;;;;;;;;4914071;29;20580;-65
2023/05/26 04:59:27;;;;;;;6.20;3.28;;;;;;;;;;4911861;29;20060;-67
2023/05/26 05:01:53;;;;;;;5.78;3.30;;;;;;;;;;4904908;29;20067;-66
2023/05/26 05:04:59;;;;;;;6.15;3.03;;;;;;;;;;4904711;29;20059;-65
2023/05/26 05:08:39;;;;;;;8.80;3.13;;;;;;;;;;4900248;29;20083;-66
2023/05/26 05:12:20;;;;;;;9.75;3.10;;;;;;;;;;4912059;29;20135;-64
2023/05/26 05:16:01;;;;;;;5.80;3.15;;;;;;;;;;4913400;29;20052;-66
2023/05/26 05:19:40;;;;;;;8.45;3.72;;;;;;;;;;4910668;29;20059;-65
2023/05/26 05:23:21;;;;;;;4.53;3.05;;;;;;;;;;4910220;29;20070;-67
2023/05/26 05:27:02;;;;;;;6.13;3.38;;;;;;;;;;4894582;29;20056;-65
2023/05/26 05:30:41;;;;;;;5.60;3.17;;;;;;;;;;4891330;29;20596;-65
2023/05/26 05:34:25;;;;;;;7.47;3.72;;;;;;;;;;4892765;29;20151;-65
2023/05/26 05:38:06;;;;;;;5.57;3.35;;;;;;;;;;4892150;29;20080;-67
2023/05/26 05:41:46;;;;;;;8.38;3.50;;;;;;;;;;4893722;29;20412;-68
2023/05/26 05:45:27;;;;;;;5.78;3.63;;;;;;;;;;4897409;29;20099;-66
2023/05/26 05:49:07;;;;;;;7.35;4.00;;;;;;;;;;4904582;29;20086;-67
2023/05/26 05:52:47;;;;;;;7.75;3.65;;;;;;;;;;4912947;29;20036;-67
2023/05/26 05:56:27;;;;;;;6.22;3.50;;;;;;;;;;4912244;29;20055;-67
2023/05/26 06:00:09;;;;;;;13.23;4.30;;;;;;;;;;4906638;29;20548;-65
2023/05/26 06:03:48;;;;;;;6.35;3.85;;;;;;;;;;4892578;29;20056;-67
2023/05/26 06:07:28;;;;;;;9.90;4.18;;;;;;;;;;4903584;29;20110;-67
2023/05/26 06:11:09;;;;;;;12.00;4.78;;;;;;;;;;4910542;29;20048;-65
2023/05/26 06:14:49;;;;;;;13.68;4.10;;;;;;;;;;4901015;29;20432;-64
2023/05/26 06:18:30;;;;;;;11.35;4.72;;;;;;;;;;4903476;29;20103;-63
2023/05/26 06:22:04;;;;;;;8.20;4.32;;;;;;;;;;4897591;29;20099;-64
2023/05/26 06:25:45;;;;;;;10.18;4.68;;;;;;;;;;4903451;29;20405;-64
2023/05/26 06:29:25;;;;;;;9.55;4.10;;;;;;;;;;4907677;29;20068;-66
2023/05/26 06:32:41;;;;;;;11.10;4.88;;;;;;;;;;4904628;29;20052;-73
2023/05/26 06:36:20;;;;;;;8.55;4.72;;;;;;;;;;4907307;29;20048;-68
2023/05/26 06:40:00;;;;;;;13.52;4.50;;;;;;;;;;4920768;28;20044;-75
2023/05/26 06:43:40;;;;;;;12.90;3.97;;;;;;;;;;4903601;29;20076;-69
2023/05/26 06:47:23;;;;;;;9.68;4.53;;;;;;;;;;4911335;29;20122;-73
2023/05/26 06:51:01;;;;;;;13.63;4.35;;;;;;;;;;4910233;29;20052;-74
2023/05/26 06:54:41;;;;;;;11.88;4.60;;;;;;;;;;4907419;29;20052;-71
2023/05/26 06:58:22;;;;;;;9.32;5.55;;;;;;;;;;4906486;29;20044;-71
2023/05/26 07:02:02;;;;;;;10.57;4.70;;;;;;;;;;4901387;29;20708;-69
2023/05/26 07:05:42;;;;;;;9.65;4.65;;;;;;;;;;4901917;29;20083;-69
2023/05/26 07:09:22;;;;;;;10.75;4.70;;;;;;;;;;4904842;29;20457;-69
2023/05/26 07:13:04;;;;;;;8.98;4.47;;;;;;;;;;4903033;29;20052;-70
2023/05/26 07:16:44;;;;;;;17.83;5.25;;;;;;;;;;4901337;29;20076;-68
2023/05/26 07:20:25;;;;;;;9.07;4.97;;;;;;;;;;4905293;29;20440;-73
2023/05/26 07:24:05;;;;;;;10.80;5.28;;;;;;;;;;4907826;29;20052;-70
2023/05/26 07:27:46;;;;;;;9.00;5.18;;;;;;;;;;4913746;29;20111;-69
2023/05/26 07:31:26;;;;;;;11.90;5.15;;;;;;;;;;4898465;29;20052;-71
2023/05/26 07:35:06;;;;;;;13.02;5.03;;;;;;;;;;4904909;29;20480;-70
2023/05/26 07:38:48;;;;;;;8.20;4.43;;;;;;;;;;4902391;29;20036;-71
2023/05/26 07:42:28;;;;;;;8.23;4.40;;;;;;;;;;4910025;29;20044;-72
2023/05/26 07:46:10;;;;;;;11.68;4.43;;;;;;;;;;4905539;29;20082;-66
2023/05/26 07:49:50;;;;;;;11.23;4.82;;;;;;;;;;4900677;29;20094;-69
2023/05/26 07:53:31;;;;;;;11.75;4.50;;;;;;;;;;4907665;29;20045;-70
2023/05/26 07:57:12;;;;;;;8.82;3.90;;;;;;;;;;4896115;29;20048;-70
2023/05/26 08:00:52;;;;;;;11.43;3.90;;;;;;;;;;4902912;29;20067;-69
2023/05/26 08:04:32;;;;;;;12.27;3.97;;;;;;;;;;4907290;29;20055;-69
2023/05/26 08:08:13;;;;;;;10.75;4.00;;;;;;;;;;4904682;29;20508;-69
2023/05/26 08:11:53;;;;;;;7.18;3.97;;;;;;;;;;4904702;29;20058;-69
2023/05/26 08:15:33;;;;;;;11.23;4.20;;;;;;;;;;4907041;29;20048;-69
2023/05/26 08:19:15;;;;;;;10.40;4.03;;;;;;;;;;4897336;29;20146;-66
2023/05/26 08:22:57;;;;;;;10.60;4.03;;;;;;;;;;4907248;29;20059;-67
2023/05/26 08:26:38;;;;;;;6.80;3.80;;;;;;;;;;4911000;29;20747;-66
2023/05/26 08:30:18;;;;;;;11.10;4.20;;;;;;;;;;4912056;29;20043;-68
2023/05/26 08:33:58;;;;;;;7.47;4.00;;;;;;;;;;4912767;29;20052;-70
2023/05/26 08:37:39;;;;;;;13.35;5.35;;;;;;;;;;4908363;29;20048;-68
2023/05/26 08:41:21;;;;;;;9.23;4.43;;;;;;;;;;4914062;29;20052;-69
2023/05/26 08:45:02;;;;;;;14.57;5.78;;;;;;;;;;4906330;29;20501;-68
2023/05/26 08:48:43;;;;;;;11.57;6.80;;;;;;;;;;4904234;29;20067;-67
2023/05/26 08:52:29;;;;;;;11.90;6.28;;;;;;;;;;4914091;29;20086;-68
2023/05/26 08:56:09;;;;;;;12.60;4.05;;;;;;;;;;4912884;29;20052;-69
2023/05/26 08:59:50;;;;;;;10.25;3.88;;;;;;;;;;4910412;29;20044;-69
2023/05/26 09:03:30;;;;;;;13.48;3.95;;;;;;;;;;4901688;29;20064;-69
2023/05/26 09:07:10;;;;;;;12.00;3.85;;;;;;;;;;4912779;29;20055;-67
2023/05/26 09:10:43;;;;;;;9.75;4.43;;;;;;;;;;4912662;29;20701;-67
2023/05/26 09:14:23;;;;;;;9.77;3.92;;;;;;;;;;4913324;29;20052;-67
2023/05/26 09:18:04;;;;;;;8.73;3.80;;;;;;;;;;4905776;29;20044;-70
2023/05/26 09:21:45;;;;;;;11.05;3.85;;;;;;;;;;4914531;29;20533;-69
2023/05/26 09:25:25;;;;;;;8.25;4.43;;;;;;;;;;4911453;29;20701;-71
2023/05/26 09:29:08;;;;;;;9.88;3.97;;;;;;;;;;4909089;29;20055;-70
2023/05/26 09:32:48;;;;;;;8.10;3.75;;;;;;;;;;4906540;29;20056;-71
2023/05/26 09:36:29;;;;;;;8.25;3.90;;;;;;;;;;4911413;29;20075;-68
2023/05/26 09:40:10;;;;;;;13.77;5.07;;;;;;;;;;4911596;29;20107;-69
2023/05/26 09:43:51;;;;;;;11.43;4.32;;;;;;;;;;4902598;29;20477;-68
2023/05/26 09:47:31;;;;;;;12.07;4.95;;;;;;;;;;4908626;29;20047;-69
2023/05/26 09:51:11;;;;;;;11.02;4.88;;;;;;;;;;4911765;29;20118;-68
2023/05/26 09:54:53;;;;;;;10.93;4.25;;;;;;;;;;4911606;29;20044;-68
2023/05/26 09:58:38;;;;;;;13.23;4.57;;;;;;;;;;4907846;29;20040;-67
2023/05/26 10:02:14;;;;;;;8.52;4.53;;;;;;;;;;4904287;29;20157;-68
2023/05/26 10:05:56;;;;;;;9.63;5.28;;;;;;;;;;4906314;29;20140;-68
2023/05/26 10:09:36;;;;;;;11.23;5.10;;;;;;;;;;4902016;29;20079;-70
2023/05/26 10:13:17;;;;;;;10.52;4.80;;;;;;;;;;4897220;29;20047;-68
2023/05/26 10:16:56;;;;;;;10.93;4.68;;;;;;;;;;4901460;29;20048;-68
2023/05/26 10:20:38;;;;;;;8.38;5.28;;;;;;;;;;4908841;29;20092;-66
2023/05/26 10:24:18;;;;;;;12.57;6.72;;;;;;;;;;4906990;29;20059;-67
2023/05/26 10:28:00;;;;;;;25.42;10.63;;;;;;;;;;4906094;29;20059;-69
2023/05/26 10:31:49;;;;;;;11.73;5.75;;;;;;;;;;4911230;29;20067;-70
2023/05/26 10:35:21;;;;;;;18.45;8.95;;;;;;;;;;4910033;29;20048;-70
2023/05/26 10:39:06;;;;;;;39.35;15.65;;;;;;;;;;4910920;29;20079;-70
2023/05/26 10:42:58;;;;;;;16.77;7.15;;;;;;;;;;4905905;29;20078;-70
2023/05/26 10:46:38;;;;;;;20.77;7.85;;;;;;;;;;4909415;29;20556;-69
2023/05/26 10:50:19;;;;;;;7.60;3.80;;;;;;;;;;4909928;29;20063;-68
2023/05/26 10:53:59;;;;;;;14.38;6.05;;;;;;;;;;4904581;29;20055;-72
2023/05/26 10:57:46;;;;;;;14.80;6.07;;;;;;;;;;4908803;29;20662;-73
2023/05/26 11:01:29;;;;;;;9.80;4.43;;;;;;;;;;4909402;29;20086;-74
2023/05/26 11:05:20;;;;;;;11.27;4.40;;;;;;;;;;4909455;29;20456;-70
2023/05/26 11:09:03;;;;;;;9.77;4.10;;;;;;;;;;4905743;29;20040;-71
2023/05/26 11:12:54;;;;;;;12.15;3.47;;;;;;;;;;4903648;29;20048;-73
2023/05/26 11:16:14;;;;;;;9.48;3.67;;;;;;;;;;4919944;29;20048;-72
2023/05/26 11:19:58;;;;;;;10.57;2.95;;;;;;;;;;4907539;29;20123;-68
2023/05/26 11:23:37;;;;;;;7.10;3.00;;;;;;;;;;4904695;29;20103;-71
2023/05/26 11:27:34;;;;;;;4.65;2.17;;;;;;;;;;4911819;29;20047;-71
2023/05/26 11:31:15;;;;;;;8.50;3.03;;;;;;;;;;4908458;29;20106;-70
2023/05/26 11:34:56;;;;;;;9.35;2.60;;;;;;;;;;4910734;29;20059;-70
2023/05/26 11:38:36;;;;;;;6.18;2.55;;;;;;;;;;4909101;29;20492;-69
2023/05/26 11:42:16;;;;;;;5.13;2.30;;;;;;;;;;4909393;29;20047;-69
2023/05/26 11:45:56;;;;;;;3.30;2.13;;;;;;;;;;4909921;29;20063;-69
2023/05/26 11:49:36;;;;;;;6.57;2.55;;;;;;;;;;4910590;29;20942;-70
2023/05/26 11:53:23;;;;;;;8.38;2.42;;;;;;;;;;4911441;29;20063;-71
2023/05/26 11:57:14;;;;;;;7.93;2.40;;;;;;;;;;4914456;29;20040;-70
2023/05/26 12:00:54;;;;;;;7.47;3.10;;;;;;;;;;4913897;29;20052;-69
2023/05/26 12:04:34;;;;;;;9.23;2.83;;;;;;;;;;4912872;29;20100;-69
2023/05/26 12:08:26;;;;;;;5.07;2.30;;;;;;;;;;4907827;29;20099;-67
2023/05/26 12:12:10;;;;;;;7.10;2.58;;;;;;;;;;4911535;29;20050;-69
2023/05/26 12:15:50;;;;;;;8.85;2.45;;;;;;;;;;4909816;29;20040;-70
2023/05/26 12:19:31;;;;;;;7.28;2.40;;;;;;;;;;4912619;29;20493;-68
2023/05/26 12:23:17;;;;;;;7.50;2.90;;;;;;;;;;4910078;29;20131;-70
2023/05/26 12:26:58;;;;;;;5.32;2.50;;;;;;;;;;4908258;29;20048;-67
2023/05/26 12:30:18;;;;;;;8.05;2.38;;;;;;;;;;4910078;29;20420;-66
2023/05/26 12:33:59;;;;;;;5.55;2.50;;;;;;;;;;4905013;29;20386;-67
2023/05/26 12:37:39;;;;;;;7.88;2.30;;;;;;;;;;4906302;29;20056;-66
2023/05/26 12:41:19;;;;;;;15.02;4.10;;;;;;;;;;4911252;29;20107;-68
2023/05/26 12:45:00;;;;;;;6.80;2.40;;;;;;;;;;4908965;29;20113;-67
2023/05/26 12:48:41;;;;;;;6.07;2.42;;;;;;;;;;4909133;29;20047;-67
2023/05/26 12:52:22;;;;;;;5.07;2.45;;;;;;;;;;4901713;29;20048;-67
2023/05/26 12:56:03;;;;;;;6.68;2.55;;;;;;;;;;4908797;29;20068;-68
2023/05/26 12:59:43;;;;;;;4.05;2.10;;;;;;;;;;4907615;29;20155;-68
2023/05/26 13:03:22;;;;;;;6.40;2.50;;;;;;;;;;4901751;29;20083;-66
2023/05/26 13:07:03;;;;;;;7.35;2.70;;;;;;;;;;4910959;29;20078;-69
2023/05/26 13:10:44;;;;;;;6.45;2.63;;;;;;;;;;4910337;29;20058;-69
2023/05/26 13:14:24;;;;;;;7.45;2.80;;;;;;;;;;4907835;29;20051;-67
2023/05/26 13:18:04;;;;;;;8.30;2.60;;;;;;;;;;4906713;29;20052;-67
2023/05/26 13:21:44;;;;;;;7.13;2.70;;;;;;;;;;4908173;29;20131;-68
2023/05/26 13:25:26;;;;;;;4.85;2.60;;;;;;;;;;4911058;29;20055;-68
2023/05/26 13:29:10;;;;;;;4.55;2.50;;;;;;;;;;4907465;29;20052;-67
2023/05/26 13:32:49;;;;;;;4.88;2.45;;;;;;;;;;4902957;29;20140;-66
2023/05/26 13:36:30;;;;;;;5.38;2.95;;;;;;;;;;4909372;29;20600;-70
2023/05/26 13:40:10;;;;;;;7.95;3.10;;;;;;;;;;4909609;29;20048;-66
2023/05/26 13:43:50;;;;;;;9.82;3.58;;;;;;;;;;4907145;29;20405;-67
2023/05/26 13:47:32;;;;;;;11.18;2.60;;;;;;;;;;4907924;29;20197;-67
2023/05/26 13:51:12;;;;;;;8.27;2.63;;;;;;;;;;4903841;29;20138;-67
2023/05/26 13:54:52;;;;;;;9.52;2.70;;;;;;;;;;4906521;29;20564;-67
2023/05/26 13:58:36;;;;;;;9.80;2.88;;;;;;;;;;4904205;29;20048;-73
2023/05/26 14:02:16;;;;;;;12.20;2.97;;;;;;;;;;4909697;29;20083;-66
2023/05/26 14:05:56;;;;;;;23.50;3.47;;;;;;;;;;4908186;29;20484;-68
2023/05/26 14:09:37;;;;;;;10.10;2.90;;;;;;;;;;4906079;29;20052;-67
2023/05/26 14:13:17;;;;;;;10.07;3.17;;;;;;;;;;4909795;29;20036;-69
2023/05/26 14:16:57;;;;;;;8.75;3.47;;;;;;;;;;4909290;29;20114;-69
2023/05/26 14:20:38;;;;;;;15.05;3.80;;;;;;;;;;4912676;29;20493;-68
2023/05/26 14:24:18;;;;;;;18.90;4.60;;;;;;;;;;4901467;29;20091;-67
2023/05/26 14:27:58;;;;;;;18.48;4.75;;;;;;;;;;4898996;29;20056;-68
2023/05/26 14:31:38;;;;;;;22.75;5.00;;;;;;;;;;4902138;29;20497;-67
2023/05/26 14:35:19;;;;;;;15.18;4.82;;;;;;;;;;4906210;29;20360;-67
2023/05/26 14:39:00;;;;;;;21.90;5.30;;;;;;;;;;4898180;29;20497;-68
2023/05/26 14:42:39;;;;;;;15.52;4.78;;;;;;;;;;4906455;29;20130;-67
2023/05/26 14:46:21;;;;;;;16.38;4.95;;;;;;;;;;4905444;29;20060;-68
2023/05/26 14:50:01;;;;;;;14.27;5.18;;;;;;;;;;4905054;29;20505;-68
2023/05/26 14:53:42;;;;;;;15.90;5.00;;;;;;;;;;4901782;29;20107;-67
2023/05/26 14:57:22;;;;;;;18.80;5.35;;;;;;;;;;4906130;29;20052;-68
2023/05/26 15:01:02;;;;;;;14.90;4.78;;;;;;;;;;4908668;29;20568;-68
2023/05/26 15:04:42;;;;;;;19.05;5.13;;;;;;;;;;4907531;29;20127;-68
2023/05/26 15:08:24;;;;;;;18.63;5.45;;;;;;;;;;4902957;29;20047;-68
2023/05/26 15:12:05;;;;;;;17.15;5.75;;;;;;;;;;4907000;29;20048;-68
2023/05/26 15:15:46;;;;;;;23.95;6.10;;;;;;;;;;4904855;29;20103;-68
2023/05/26 15:19:26;;;;;;;19.08;5.75;;;;;;;;;;4909065;29;20047;-69
2023/05/26 15:23:07;;;;;;;25.08;6.03;;;;;;;;;;4913365;29;20420;-68
2023/05/26 15:26:47;;;;;;;21.23;6.15;;;;;;;;;;4911456;29;20119;-70
2023/05/26 15:30:29;;;;;;;20.27;5.63;;;;;;;;;;4911241;29;20032;-68
2023/05/26 15:34:09;;;;;;;18.35;6.55;;;;;;;;;;4899956;29;20052;-70
2023/05/26 15:37:50;;;;;;;20.33;5.50;;;;;;;;;;4906445;29;20047;-68
2023/05/26 15:41:31;;;;;;;17.13;6.25;;;;;;;;;;4907580;29;20619;-70
2023/05/26 15:45:10;;;;;;;16.45;5.82;;;;;;;;;;4909310;29;20040;-71
2023/05/26 15:48:52;;;;;;;16.63;5.75;;;;;;;;;;4901727;29;20450;-68
2023/05/26 15:52:33;;;;;;;19.42;5.95;;;;;;;;;;4903150;29;20493;-70
2023/05/26 15:56:13;;;;;;;20.02;6.22;;;;;;;;;;4907264;29;20099;-68
2023/05/26 15:59:55;;;;;;;20.00;5.80;;;;;;;;;;4901925;29;20063;-68
2023/05/26 16:03:35;;;;;;;21.83;5.85;;;;;;;;;;4903146;29;20149;-68
2023/05/26 16:07:15;;;;;;;17.90;5.68;;;;;;;;;;4907990;29;20044;-68
2023/05/26 16:10:57;;;;;;;17.25;5.28;;;;;;;;;;4906947;29;20475;-71
2023/05/26 16:14:36;;;;;;;18.55;5.80;;;;;;;;;;4912685;29;20088;-66
2023/05/26 16:18:16;;;;;;;16.55;5.18;;;;;;;;;;4905631;29;20135;-71
2023/05/26 16:21:57;;;;;;;14.07;5.97;;;;;;;;;;4909621;29;20083;-67
2023/05/26 16:25:37;;;;;;;16.20;6.00;;;;;;;;;;4911169;29;20147;-67
2023/05/26 16:29:17;;;;;;;11.93;5.43;;;;;;;;;;4912290;29;20062;-68
2023/05/26 16:32:58;;;;;;;22.85;6.18;;;;;;;;;;4904151;29;20496;-68
2023/05/26 16:36:38;;;;;;;20.48;6.20;;;;;;;;;;4913067;29;20200;-73
2023/05/26 16:40:18;;;;;;;17.13;5.70;;;;;;;;;;4909791;29;20099;-71
2023/05/26 16:43:59;;;;;;;19.45;6.70;;;;;;;;;;4907931;29;20485;-68
2023/05/26 16:47:39;;;;;;;16.00;6.53;;;;;;;;;;4907350;29;20057;-68
2023/05/26 16:51:20;;;;;;;18.98;6.72;;;;;;;;;;4910263;29;20517;-70
2023/05/26 16:55:00;;;;;;;19.52;6.68;;;;;;;;;;4912368;29;20688;-69
2023/05/26 16:58:42;;;;;;;23.63;6.93;;;;;;;;;;4912448;29;20039;-70
2023/05/26 17:02:22;;;;;;;18.63;6.10;;;;;;;;;;4913315;29;20048;-69
2023/05/26 17:06:02;;;;;;;16.42;5.90;;;;;;;;;;4914629;29;20386;-71
2023/05/26 17:09:43;;;;;;;18.02;6.30;;;;;;;;;;4912582;29;20050;-67
2023/05/26 17:13:23;;;;;;;21.48;6.53;;;;;;;;;;4912413;29;20052;-68
2023/05/26 17:17:03;;;;;;;14.02;5.70;;;;;;;;;;4908989;29;20055;-70
2023/05/26 17:20:45;;;;;;;19.33;6.00;;;;;;;;;;4914060;29;20076;-69
2023/05/26 17:24:25;;;;;;;19.40;5.80;;;;;;;;;;4912196;29;20461;-67
2023/05/26 17:28:07;;;;;;;16.60;6.03;;;;;;;;;;4913791;29;20060;-68
2023/05/26 17:31:48;;;;;;;17.90;5.65;;;;;;;;;;4907068;29;20052;-69
2023/05/26 17:35:30;;;;;;;14.35;5.80;;;;;;;;;;4910800;29;20055;-69
2023/05/26 17:39:07;;;;;;;22.52;6.72;;;;;;;;;;4904757;29;20044;-70
2023/05/26 17:42:48;;;;;;;14.85;6.22;;;;;;;;;;4908977;29;20052;-73
2023/05/26 17:46:28;;;;;;;19.50;6.25;;;;;;;;;;4903864;29;20206;-69
2023/05/26 17:50:09;;;;;;;17.77;6.43;;;;;;;;;;4906178;29;20056;-73
2023/05/26 17:53:50;;;;;;;15.02;5.78;;;;;;;;;;4908761;29;20051;-72
2023/05/26 17:57:33;;;;;;;15.60;6.22;;;;;;;;;;4907727;29;20048;-71
2023/05/26 18:01:13;;;;;;;19.05;6.60;;;;;;;;;;4901888;29;20055;-72
2023/05/26 18:04:55;;;;;;;15.95;5.45;;;;;;;;;;4904425;29;20131;-72
2023/05/26 18:08:36;;;;;;;14.85;6.28;;;;;;;;;;4906626;29;20044;-72
2023/05/26 18:12:18;;;;;;;21.85;6.15;;;;;;;;;;4905334;29;20510;-71
2023/05/26 18:15:58;;;;;;;11.30;5.63;;;;;;;;;;4906343;29;20051;-72
2023/05/26 18:19:39;;;;;;;13.02;5.47;;;;;;;;;;4909128;29;20110;-71
2023/05/26 18:23:19;;;;;;;16.95;6.07;;;;;;;;;;4913691;29;20091;-73
2023/05/26 18:27:00;;;;;;;21.13;6.63;;;;;;;;;;4899449;29;20056;-72
2023/05/26 18:30:40;;;;;;;21.15;6.22;;;;;;;;;;4906767;29;20063;-73
2023/05/26 18:34:20;;;;;;;15.52;6.15;;;;;;;;;;4905701;29;20247;-75
2023/05/26 18:38:02;;;;;;;21.23;6.55;;;;;;;;;;4907917;29;20209;-72
2023/05/26 18:41:42;;;;;;;14.82;6.35;;;;;;;;;;4910215;29;20083;-72
2023/05/26 18:45:23;;;;;;;16.52;6.03;;;;;;;;;;4908532;29;20243;-72
2023/05/26 18:49:05;;;;;;;17.98;6.10;;;;;;;;;;4899995;29;20128;-73
2023/05/26 18:52:45;;;;;;;16.90;6.25;;;;;;;;;;4897901;29;20063;-71
2023/05/26 18:56:27;;;;;;;11.73;6.30;;;;;;;;;;4899596;29;20109;-71
2023/05/26 19:00:09;;;;;;;16.02;6.40;;;;;;;;;;4909859;29;20051;-72
2023/05/26 19:03:49;;;;;;;15.25;5.85;;;;;;;;;;4905258;29;20313;-70
2023/05/26 19:07:30;;;;;;;16.08;6.22;;;;;;;;;;4897631;29;20945;-71
2023/05/26 19:11:12;;;;;;;17.27;6.43;;;;;;;;;;4904790;29;20508;-69
2023/05/26 19:14:52;;;;;;;12.43;5.50;;;;;;;;;;4893323;29;20055;-72
2023/05/26 19:18:34;;;;;;;20.65;5.90;;;;;;;;;;4896587;29;20099;-72
2023/05/26 19:22:14;;;;;;;15.38;5.88;;;;;;;;;;4901971;29;20097;-71
2023/05/26 19:25:55;;;;;;;15.60;6.35;;;;;;;;;;4899858;29;20453;-69